Time;durP1;ratioP1;P1;durP2;ratioP2;P2;SDS_P1;SDS_P2;PMS_P1;PMS_P2;Temp;Humidity;BMP_temperature;BMP_pressure;BME280_temperature;BME280_humidity;BME280_pressure;Samples;Min_cycle;Max_cycle;Signal;HPM_P1;HPM_P2
2022/06/16 00:01:53;;;;;;;11.98;6.90;;;;;;;19.05;60.67;99048.94;5201387;28;20163;-70
2022/06/16 00:04:46;;;;;;;12.32;7.22;;;;;;;18.69;61.27;99033.78;5187673;28;20060;-70
2022/06/16 00:07:37;;;;;;;9.10;6.85;;;;;;;18.76;60.57;99026.63;5203503;28;20146;-70
2022/06/16 00:10:27;;;;;;;10.13;6.90;;;;;;;18.55;60.63;99029.34;5203106;28;20609;-70
2022/06/16 00:13:17;;;;;;;8.10;6.18;;;;;;;18.53;61.09;99040.25;5202977;28;20046;-70
2022/06/16 00:16:08;;;;;;;8.90;6.60;;;;;;;18.41;62.36;99054.38;5203501;28;20060;-70
2022/06/16 00:18:59;;;;;;;13.02;6.32;;;;;;;18.50;61.23;99048.69;5190453;28;20060;-70
2022/06/16 00:21:49;;;;;;;12.48;7.03;;;;;;;18.42;61.84;99056.06;5202671;28;20053;-70
2022/06/16 00:24:39;;;;;;;12.05;7.18;;;;;;;18.30;61.86;99061.13;5202584;28;20462;-70
2022/06/16 00:27:30;;;;;;;15.15;7.63;;;;;;;18.48;62.19;99045.41;5202978;28;20511;-70
2022/06/16 00:30:20;;;;;;;9.95;6.70;;;;;;;18.76;61.25;99042.75;5200892;28;20053;-70
2022/06/16 00:33:11;;;;;;;10.30;7.05;;;;;;;18.48;62.33;99044.56;5202921;28;20060;-70
2022/06/16 00:36:01;;;;;;;11.10;7.38;;;;;;;18.48;61.91;99044.56;5201992;28;20201;-71
2022/06/16 00:38:51;;;;;;;10.90;6.72;;;;;;;18.48;61.95;99036.50;5203496;28;20549;-72
2022/06/16 00:41:41;;;;;;;11.50;7.00;;;;;;;18.52;61.56;99051.19;5202331;28;20060;-70
2022/06/16 00:44:32;;;;;;;8.55;6.45;;;;;;;18.55;62.62;99048.13;5203725;28;20071;-70
2022/06/16 00:47:25;;;;;;;12.65;7.15;;;;;;;18.18;63.31;99031.28;5203789;28;20044;-70
2022/06/16 00:50:16;;;;;;;11.75;7.20;;;;;;;18.37;63.21;99045.06;5203328;28;20519;-70
2022/06/16 00:53:06;;;;;;;11.05;6.95;;;;;;;18.21;63.19;99030.91;5189180;28;20053;-70
2022/06/16 00:55:57;;;;;;;9.23;7.00;;;;;;;18.19;63.22;99027.56;5202290;28;20045;-70
2022/06/16 00:58:52;;;;;;;9.48;7.38;;;;;;;18.14;63.59;99027.31;5202044;28;20057;-70
2022/06/16 01:01:43;;;;;;;14.65;7.20;;;;;;;18.13;62.81;99040.94;5202020;28;20049;-70
2022/06/16 01:04:54;;;;;;;12.27;7.57;;;;;;;18.10;62.20;99044.00;5203029;28;20057;-70
2022/06/16 01:07:47;;;;;;;9.23;6.75;;;;;;;17.86;63.36;99032.59;5203375;28;20432;-70
2022/06/16 01:10:45;;;;;;;11.07;7.53;;;;;;;18.20;63.66;99041.81;5202957;28;20057;-69
2022/06/16 01:13:51;;;;;;;11.07;7.35;;;;;;;18.09;63.08;99032.44;5202816;28;20504;-69
2022/06/16 01:16:46;;;;;;;13.20;7.50;;;;;;;17.77;63.61;99023.81;5202835;28;20045;-69
2022/06/16 01:19:57;;;;;;;11.75;7.82;;;;;;;17.85;63.93;99041.69;5191843;28;20054;-69
2022/06/16 01:23:06;;;;;;;11.50;7.53;;;;;;;17.94;64.16;99035.16;5201652;28;20160;-69
2022/06/16 01:26:25;;;;;;;11.60;7.35;;;;;;;17.89;64.06;99026.03;5187735;28;20087;-69
2022/06/16 01:29:34;;;;;;;11.23;7.60;;;;;;;17.99;64.06;99024.69;5174223;28;20138;-69
2022/06/16 01:32:55;;;;;;;9.57;7.60;;;;;;;18.05;63.64;99031.16;5202401;28;20417;-69
2022/06/16 01:35:57;;;;;;;12.65;7.40;;;;;;;18.00;63.58;99028.19;5191572;28;20324;-69
2022/06/16 01:39:06;;;;;;;13.00;7.75;;;;;;;18.05;62.97;99031.97;5201682;28;20487;-69
2022/06/16 01:42:30;;;;;;;10.90;7.75;;;;;;;18.04;62.50;99024.94;5200960;28;20104;-69
2022/06/16 01:45:37;;;;;;;8.55;7.22;;;;;;;17.86;63.22;99021.88;5186664;28;20052;-69
2022/06/16 01:48:32;;;;;;;11.18;7.60;;;;;;;17.82;63.08;99024.09;5201550;28;20045;-69
2022/06/16 01:51:35;;;;;;;9.65;7.43;;;;;;;17.83;63.88;99023.06;5202225;28;20514;-69
2022/06/16 01:54:30;;;;;;;12.40;8.18;;;;;;;17.81;63.00;99014.41;5199713;28;20057;-70
2022/06/16 01:57:26;;;;;;;12.73;8.05;;;;;;;17.78;63.12;99011.25;5181227;28;20050;-69
2022/06/16 02:00:20;;;;;;;10.00;7.28;;;;;;;17.73;62.82;99009.13;5180249;28;20549;-69
2022/06/16 02:03:19;;;;;;;11.65;7.80;;;;;;;17.88;62.51;99011.78;5202217;28;20053;-69
2022/06/16 02:06:21;;;;;;;12.68;7.18;;;;;;;17.70;61.99;99006.81;5201035;28;20077;-69
2022/06/16 02:09:17;;;;;;;12.90;7.75;;;;;;;17.63;62.25;99005.91;5189154;28;20075;-70
2022/06/16 02:12:55;;;;;;;10.82;6.70;;;;;;;17.56;61.89;99011.19;5200553;28;20082;-69
2022/06/16 02:15:56;;;;;;;9.63;7.10;;;;;;;17.40;62.37;98994.50;5200508;28;20396;-69
2022/06/16 02:18:51;;;;;;;11.23;6.63;;;;;;;17.47;62.19;99006.13;5201188;28;20274;-69
2022/06/16 02:21:47;;;;;;;15.35;7.53;;;;;;;17.52;63.31;99017.13;5200064;28;20525;-69
2022/06/16 02:24:37;;;;;;;8.60;6.60;;;;;;;17.50;62.32;98995.84;5199873;28;20423;-69
2022/06/16 02:27:28;;;;;;;11.95;7.15;;;;;;;17.47;62.12;99006.13;5200736;28;20053;-69
2022/06/16 02:30:30;;;;;;;13.45;6.80;;;;;;;17.52;62.42;99006.41;5200271;28;20080;-70
2022/06/16 02:33:31;;;;;;;11.00;7.13;;;;;;;17.54;63.71;99017.75;5200884;28;20071;-69
2022/06/16 02:36:53;;;;;;;11.35;7.20;;;;;;;17.49;63.60;99002.25;5201753;28;20492;-69
2022/06/16 02:40:11;;;;;;;11.55;7.85;;;;;;;17.68;63.45;98997.28;5202454;28;20131;-69
2022/06/16 02:43:07;;;;;;;11.45;8.07;;;;;;;17.60;62.23;98982.16;5186806;28;20478;-69
2022/06/16 02:46:27;;;;;;;11.77;8.25;;;;;;;17.31;63.10;98986.53;5201717;28;20064;-69
2022/06/16 02:49:20;;;;;;;10.95;7.53;;;;;;;17.29;63.47;98991.28;5201021;28;20522;-69
2022/06/16 02:52:26;;;;;;;16.17;7.72;;;;;;;17.24;63.12;98991.00;5200117;28;20056;-69
2022/06/16 02:55:36;;;;;;;11.13;7.68;;;;;;;17.18;63.35;98970.31;5187449;28;20060;-69
2022/06/16 02:58:27;;;;;;;11.10;7.93;;;;;;;17.11;63.50;98982.78;5201521;28;20052;-69
2022/06/16 03:01:19;;;;;;;14.65;7.97;;;;;;;17.23;63.12;98993.88;5188116;28;20187;-69
2022/06/16 03:04:15;;;;;;;15.32;7.88;;;;;;;17.14;63.52;98990.44;5199812;28;20538;-69
2022/06/16 03:07:11;;;;;;;13.43;7.80;;;;;;;17.10;63.64;98987.31;5200343;28;20045;-69
2022/06/16 03:10:05;;;;;;;;;;;;;;;17.12;63.26;98987.97;5201200;28;20426;-69
2022/06/16 03:12:57;;;;;;;14.10;7.55;;;;;;;17.06;63.41;98983.34;5184687;28;19929;-69
2022/06/16 03:15:49;;;;;;;10.50;8.00;;;;;;;16.99;63.48;98976.25;5199814;28;20159;-69
2022/06/16 03:18:41;;;;;;;11.55;7.82;;;;;;;16.84;64.62;98968.22;5186703;28;20061;-69
2022/06/16 03:21:31;;;;;;;10.95;7.35;;;;;;;16.97;64.90;98987.13;5200822;28;20057;-69
2022/06/16 03:24:22;;;;;;;14.82;8.00;;;;;;;17.14;65.77;98990.44;5199931;28;20055;-69
2022/06/16 03:27:17;;;;;;;10.18;8.10;;;;;;;17.13;64.89;98978.09;5187033;28;20089;-69
2022/06/16 03:30:08;;;;;;;13.30;8.32;;;;;;;17.13;65.72;98999.50;5200510;28;20515;-69
2022/06/16 03:32:58;;;;;;;13.20;8.43;;;;;;;17.23;67.17;99007.28;5201173;28;20052;-69
2022/06/16 03:35:49;;;;;;;12.65;8.43;;;;;;;17.20;66.33;99002.28;5200767;28;20075;-69
2022/06/16 03:38:42;;;;;;;16.83;8.27;;;;;;;17.19;66.53;99009.50;5204327;28;20442;-69
2022/06/16 03:41:35;;;;;;;14.50;8.10;;;;;;;17.19;64.72;99004.13;5203861;28;20060;-69
2022/06/16 03:44:28;;;;;;;10.90;8.27;;;;;;;17.12;66.00;99013.94;5203720;28;20377;-69
2022/06/16 03:47:18;;;;;;;13.10;7.85;;;;;;;17.22;65.37;99019.84;5190562;28;20049;-69
2022/06/16 03:50:14;;;;;;;15.48;8.15;;;;;;;17.18;65.98;99023.88;5204224;28;20069;-69
2022/06/16 03:53:04;;;;;;;15.43;8.25;;;;;;;17.31;65.58;99023.25;5203644;28;20531;-69
2022/06/16 03:55:57;;;;;;;9.55;7.53;;;;;;;17.32;65.37;99017.72;5203318;28;20053;-69
2022/06/16 03:58:54;;;;;;;12.10;7.60;;;;;;;17.31;64.88;99028.59;5203474;28;20112;-69
2022/06/16 04:01:45;;;;;;;9.90;7.75;;;;;;;17.13;63.78;99032.50;5202341;28;20339;-69
2022/06/16 04:04:35;;;;;;;11.13;7.55;;;;;;;17.03;65.95;99031.94;5225293;22;20071;-70
2022/06/16 04:07:29;;;;;;;9.85;7.80;;;;;;;17.26;65.67;99037.22;5212664;28;20082;-70
2022/06/16 04:10:31;;;;;;;15.52;8.35;;;;;;;17.36;65.43;99045.78;5230091;28;20101;-72
2022/06/16 04:13:25;;;;;;;16.40;8.48;;;;;;;17.35;65.25;99044.13;5223346;28;20548;-71
2022/06/16 04:16:20;;;;;;;13.52;9.07;;;;;;;17.20;67.25;99054.03;5224275;28;20175;-71
2022/06/16 04:19:14;;;;;;;14.52;8.88;;;;;;;17.80;66.59;99052.13;5209350;28;20410;-71
2022/06/16 04:22:04;;;;;;;11.80;8.30;;;;;;;17.79;66.74;99059.34;5223611;28;20060;-71
2022/06/16 04:24:58;;;;;;;13.27;8.25;;;;;;;17.92;65.60;99057.84;5223516;28;20135;-70
2022/06/16 04:27:48;;;;;;;14.20;8.43;;;;;;;18.05;65.10;99071.41;5223865;28;20584;-70
2022/06/16 04:30:39;;;;;;;13.02;8.90;;;;;;;18.09;64.81;99064.63;5224915;28;20060;-70
2022/06/16 04:33:30;;;;;;;15.98;9.13;;;;;;;18.25;63.70;99068.94;5223561;28;20194;-69
2022/06/16 04:36:22;;;;;;;13.07;8.60;;;;;;;18.11;63.91;99064.41;5210366;28;20063;-70
2022/06/16 04:39:23;;;;;;;11.30;8.32;;;;;;;18.23;63.64;99077.16;5210116;28;20122;-70
2022/06/16 04:42:15;;;;;;;13.98;8.35;;;;;;;18.49;63.04;99073.06;5223156;28;20307;-70
2022/06/16 04:45:06;;;;;;;11.45;8.05;;;;;;;18.44;63.65;99075.47;5222998;28;20358;-70
2022/06/16 04:47:56;;;;;;;14.15;8.68;;;;;;;18.23;65.05;99070.97;5223473;28;20051;-70
2022/06/16 04:50:51;;;;;;;14.98;8.93;;;;;;;18.40;63.74;99083.09;5222746;28;20156;-69
2022/06/16 04:53:46;;;;;;;11.80;7.95;;;;;;;18.36;64.52;99071.09;5223824;28;20502;-70
2022/06/16 04:56:56;;;;;;;12.25;8.45;;;;;;;18.53;63.98;99071.66;5208650;28;20052;-70
2022/06/16 05:00:20;;;;;;;11.50;8.32;;;;;;;18.76;64.03;99072.28;5223116;28;20065;-70
2022/06/16 05:03:28;;;;;;;13.57;8.80;;;;;;;18.65;64.39;99080.84;5211847;28;20564;-70
2022/06/16 05:06:37;;;;;;;13.57;8.30;;;;;;;18.86;63.76;99090.75;5223969;28;20280;-70
2022/06/16 05:09:36;;;;;;;13.90;8.05;;;;;;;19.01;64.19;99093.38;5223170;28;20113;-70
2022/06/16 05:12:46;;;;;;;12.32;8.70;;;;;;;19.30;63.83;99100.34;5222887;28;20134;-70
2022/06/16 05:16:08;;;;;;;13.10;8.70;;;;;;;19.29;63.52;99114.00;5221973;28;20300;-70
2022/06/16 05:19:23;;;;;;;25.13;8.45;;;;;;;19.08;63.25;99115.75;5223757;28;20052;-70
2022/06/16 05:22:33;;;;;;;14.07;8.10;;;;;;;18.74;63.52;99111.09;5222348;28;20092;-70
2022/06/16 05:25:48;;;;;;;12.07;8.35;;;;;;;19.06;62.02;99092.78;5222163;28;20087;-70
2022/06/16 05:29:11;;;;;;;19.02;8.45;;;;;;;19.25;62.10;99109.03;5213581;28;20056;-70
2022/06/16 05:32:19;;;;;;;14.13;7.85;;;;;;;19.34;61.29;99122.34;5218731;28;20147;-70
2022/06/16 05:35:30;;;;;;;16.02;8.27;;;;;;;19.29;60.17;99104.09;5210638;28;20072;-70
2022/06/16 05:38:52;;;;;;;16.27;8.65;;;;;;;19.25;60.96;99111.72;5222415;28;20552;-70
2022/06/16 05:42:18;;;;;;;13.48;8.65;;;;;;;19.50;60.39;99122.00;5220780;28;20507;-71
2022/06/16 05:45:15;;;;;;;15.65;9.15;;;;;;;19.48;61.29;99116.00;5208373;28;20150;-71
2022/06/16 05:48:14;;;;;;;15.15;9.07;;;;;;;19.61;60.94;99120.63;5222559;28;20052;-70
2022/06/16 05:51:09;;;;;;;18.70;10.07;;;;;;;19.56;61.36;99120.38;5213198;28;20183;-71
2022/06/16 05:54:20;;;;;;;13.55;9.23;;;;;;;19.83;60.33;99129.44;5219223;28;20503;-70
2022/06/16 05:57:11;;;;;;;16.02;10.07;;;;;;;20.05;60.64;99127.47;5212055;28;20049;-71
2022/06/16 06:00:03;;;;;;;17.10;9.63;;;;;;;20.17;60.42;99120.47;5221899;28;20107;-70
2022/06/16 06:02:58;;;;;;;15.00;9.68;;;;;;;20.52;59.46;99126.56;5221735;28;20624;-70
2022/06/16 06:06:01;;;;;;;12.55;9.68;;;;;;;20.87;58.96;99129.09;5222079;28;20108;-71
2022/06/16 06:18:43;;;;;;;15.05;8.38;;;;;;;21.80;56.05;99107.38;5207410;28;20490;-70
2022/06/16 06:24:50;;;;;;;12.18;7.38;;;;;;;21.89;55.88;99122.31;5221303;28;20055;-71
2022/06/16 06:27:46;;;;;;;13.63;7.20;;;;;;;21.88;55.48;99111.72;5221593;28;20048;-71
2022/06/16 06:30:38;;;;;;;13.77;7.53;;;;;;;21.94;55.62;99119.78;5221615;28;20047;-71
2022/06/16 06:33:29;;;;;;;13.13;7.85;;;;;;;22.02;55.42;99111.44;5208356;28;20053;-71
2022/06/16 06:36:21;;;;;;;9.68;8.18;;;;;;;21.99;56.53;99143.44;5221443;28;20141;-71
2022/06/16 06:39:12;;;;;;;15.82;7.90;;;;;;;22.10;57.06;99147.34;5221953;28;20043;-71
2022/06/16 06:42:03;;;;;;;10.90;6.57;;;;;;;22.43;54.21;99139.91;5222797;28;20053;-71
2022/06/16 06:44:56;;;;;;;;;;;;;;;22.73;50.27;99142.84;5221983;28;20426;-72
2022/06/16 06:47:47;;;;;;;7.50;5.72;;;;;;;23.09;53.73;99156.75;5214985;28;19931;-70
2022/06/16 06:50:40;;;;;;;9.05;6.13;;;;;;;23.56;49.46;99155.25;5221261;28;20053;-71
2022/06/16 06:53:30;;;;;;;11.43;6.05;;;;;;;23.54;48.23;99145.69;5221790;28;20466;-71
2022/06/16 06:56:20;;;;;;;10.15;5.68;;;;;;;23.81;47.26;99170.66;5221489;28;20531;-72
2022/06/16 06:59:15;;;;;;;9.73;6.00;;;;;;;23.54;48.01;99160.09;5208626;28;20406;-71
2022/06/16 07:02:05;;;;;;;14.00;7.93;;;;;;;23.13;50.05;99157.97;5219619;28;20055;-71
2022/06/16 07:04:55;;;;;;;9.75;5.25;;;;;;;23.59;47.81;99151.28;5221521;28;20053;-72
2022/06/16 07:07:46;;;;;;;11.75;5.57;;;;;;;24.27;47.04;99161.13;5222456;28;20481;-71
2022/06/16 07:10:36;;;;;;;6.20;5.40;;;;;;;24.58;45.47;99150.09;5224720;28;20534;-71
2022/06/16 07:13:29;;;;;;;12.23;5.07;;;;;;;25.36;43.84;99164.50;5226753;28;20107;-72
2022/06/16 07:16:21;;;;;;;8.88;4.65;;;;;;;26.43;43.43;99171.44;5226695;28;20053;-71
2022/06/16 07:19:11;;;;;;;11.50;4.90;;;;;;;26.36;42.50;99179.72;5212741;28;20127;-71
2022/06/16 07:22:04;;;;;;;8.30;4.88;;;;;;;25.67;42.69;99176.91;5226353;28;20418;-71
2022/06/16 07:24:55;;;;;;;10.63;4.97;;;;;;;25.89;41.58;99174.41;5225205;28;20057;-72
2022/06/16 07:27:45;;;;;;;8.82;4.93;;;;;;;27.23;42.49;99191.38;5226045;28;20041;-72
2022/06/16 07:30:36;;;;;;;10.40;5.15;;;;;;;27.82;39.85;99195.31;5225970;28;20098;-71
2022/06/16 07:33:26;;;;;;;8.05;4.70;;;;;;;26.91;41.47;99197.34;5225654;28;20056;-71
2022/06/16 07:36:16;;;;;;;6.75;4.63;;;;;;;27.00;40.92;99195.88;5225632;28;20064;-71
2022/06/16 07:39:07;;;;;;;16.33;5.07;;;;;;;27.82;39.64;99186.31;5224864;28;20475;-70
2022/06/16 07:41:57;;;;;;;8.35;4.82;;;;;;;28.78;38.64;99186.63;5225034;28;20064;-71
2022/06/16 07:44:48;;;;;;;5.03;4.53;;;;;;;27.76;39.83;99192.72;5223629;28;20095;-72
2022/06/16 07:47:37;;;;;;;16.40;5.43;;;;;;;28.12;39.23;99195.97;5224244;28;20143;-71
2022/06/16 07:50:31;;;;;;;7.45;4.53;;;;;;;27.96;41.12;99203.94;5224720;28;20977;-72
2022/06/16 07:53:21;;;;;;;9.00;4.35;;;;;;;27.70;40.91;99208.16;5223432;28;20475;-71
2022/06/16 07:56:12;;;;;;;7.82;4.82;;;;;;;26.83;41.62;99204.03;5223525;28;20067;-70
2022/06/16 07:59:02;;;;;;;11.32;5.00;;;;;;;26.62;43.67;99194.66;5224753;28;20092;-70
2022/06/16 08:01:54;;;;;;;8.35;5.18;;;;;;;28.46;42.23;99200.19;5225294;28;20057;-70
2022/06/16 08:04:44;;;;;;;9.50;4.43;;;;;;;27.97;41.71;99200.13;5223958;28;20057;-72
2022/06/16 08:07:34;;;;;;;11.45;5.07;;;;;;;27.15;41.50;99208.94;5225685;28;20056;-71
2022/06/16 08:10:28;;;;;;;9.35;5.53;;;;;;;27.29;40.94;99214.91;5224083;28;20085;-70
2022/06/16 08:13:21;;;;;;;9.55;4.88;;;;;;;27.01;42.11;99200.25;5209718;28;20119;-71
2022/06/16 08:16:11;;;;;;;8.57;4.85;;;;;;;26.91;41.73;99197.34;5225141;28;20132;-72
2022/06/16 08:19:02;;;;;;;11.13;4.90;;;;;;;26.68;42.84;99209.16;5226477;28;20070;-69
2022/06/16 08:21:52;;;;;;;6.97;4.65;;;;;;;26.52;44.00;99199.06;5225037;28;20213;-69
2022/06/16 08:24:43;;;;;;;6.88;4.53;;;;;;;26.61;43.60;99198.44;5225836;28;20182;-71
2022/06/16 08:27:36;;;;;;;6.85;4.55;;;;;;;27.34;43.09;99204.06;5225017;28;20071;-70
2022/06/16 08:30:26;;;;;;;11.82;4.95;;;;;;;29.22;40.84;99205.59;5223508;28;20104;-70
2022/06/16 08:33:18;;;;;;;7.65;4.47;;;;;;;29.15;38.53;99199.53;5208126;28;20110;-70
2022/06/16 08:36:09;;;;;;;8.57;4.45;;;;;;;29.14;38.17;99218.91;5224965;28;20059;-71
2022/06/16 08:38:59;;;;;;;8.82;4.03;;;;;;;30.26;37.54;99192.31;5224060;28;20049;-70
2022/06/16 08:41:55;;;;;;;14.13;5.05;;;;;;;29.00;39.45;99210.31;5223580;28;20084;-70
2022/06/16 08:45:00;;;;;;;12.68;5.35;;;;;;;30.34;37.95;99208.22;5224010;28;20079;-72
2022/06/16 08:48:06;;;;;;;11.15;4.20;;;;;;;30.92;34.23;99221.00;5223308;28;20118;-71
2022/06/16 08:51:06;;;;;;;6.22;4.30;;;;;;;31.05;37.23;99232.22;5222607;28;20055;-69
2022/06/16 08:54:19;;;;;;;8.38;4.63;;;;;;;30.41;37.90;99222.47;5221571;28;20073;-69
2022/06/16 08:57:21;;;;;;;13.73;5.07;;;;;;;29.40;37.22;99234.41;5214422;28;20055;-69
2022/06/16 09:00:38;;;;;;;7.43;4.97;;;;;;;30.12;37.08;99229.44;5222016;28;20068;-69
2022/06/16 09:03:55;;;;;;;11.27;4.65;;;;;;;31.40;36.90;99227.91;5222966;28;20056;-69
2022/06/16 09:07:07;;;;;;;9.25;4.75;;;;;;;31.13;36.78;99233.63;5221372;28;20088;-69
2022/06/16 09:10:17;;;;;;;9.05;4.85;;;;;;;30.50;36.67;99224.69;5224508;28;20183;-69
2022/06/16 09:13:35;;;;;;;8.48;5.13;;;;;;;30.01;38.50;99246.91;5221781;28;20565;-71
2022/06/16 09:16:36;;;;;;;9.98;5.00;;;;;;;30.51;36.97;99245.50;5222428;28;20604;-70
2022/06/16 09:19:49;;;;;;;11.38;5.65;;;;;;;30.49;34.99;99245.75;5221305;28;20068;-70
2022/06/16 09:23:14;;;;;;;7.63;4.75;;;;;;;31.33;35.71;99244.63;5221918;28;20057;-70
2022/06/16 09:26:17;;;;;;;9.48;4.80;;;;;;;30.69;35.65;99250.47;5222031;28;20060;-70
2022/06/16 09:29:14;;;;;;;8.63;4.30;;;;;;;30.79;35.24;99258.72;5222929;28;20049;-70
2022/06/16 09:32:04;;;;;;;6.45;4.57;;;;;;;32.07;35.62;99245.06;5222076;28;20583;-69
2022/06/16 09:35:09;;;;;;;7.47;4.20;;;;;;;30.67;31.82;99244.47;5221076;28;20523;-69
2022/06/16 09:38:36;;;;;;;8.35;3.95;;;;;;;29.75;35.18;99254.13;5223447;28;20575;-70
2022/06/16 09:44:47;;;;;;;8.27;4.22;;;;;;;28.93;37.88;99253.34;5222955;28;20513;-69
2022/06/16 09:47:49;;;;;;;7.50;3.95;;;;;;;28.60;36.92;99246.19;5222229;28;20142;-69
2022/06/16 09:50:42;;;;;;;5.93;3.92;;;;;;;30.17;36.50;99267.75;5222887;28;20056;-70
2022/06/16 09:53:43;;;;;;;7.43;4.53;;;;;;;30.25;36.01;99256.34;5221631;28;20064;-70
2022/06/16 09:57:06;;;;;;;8.95;4.20;;;;;;;30.75;36.58;99263.09;5222941;28;20179;-70
2022/06/16 10:00:09;;;;;;;8.27;4.43;;;;;;;31.02;33.56;99265.63;5221850;28;20419;-71
2022/06/16 10:03:35;;;;;;;8.00;4.00;;;;;;;30.39;35.29;99268.41;5206961;28;20071;-71
2022/06/16 10:06:28;;;;;;;6.25;4.13;;;;;;;30.58;35.86;99224.19;5217474;28;20068;-73
2022/06/16 10:09:31;;;;;;;6.97;4.07;;;;;;;31.02;35.26;99273.84;5221133;28;20041;-71
2022/06/16 10:12:21;;;;;;;8.95;4.10;;;;;;;31.20;34.79;99279.91;5220448;28;20059;-71
2022/06/16 10:15:27;;;;;;;5.20;4.03;;;;;;;31.69;34.29;99269.25;5221510;28;20049;-71
2022/06/16 10:18:18;;;;;;;7.03;3.83;;;;;;;31.40;33.32;99277.22;5221685;28;20087;-71
2022/06/16 10:21:11;;;;;;;6.13;3.70;;;;;;;32.58;33.91;99277.81;5220327;28;20087;-72
2022/06/16 10:24:03;;;;;;;6.18;3.58;;;;;;;30.93;36.21;99283.72;5221559;28;20102;-70
2022/06/16 10:26:58;;;;;;;9.68;4.25;;;;;;;31.41;32.81;99276.13;5221424;28;20178;-71
2022/06/16 10:30:17;;;;;;;6.82;3.30;;;;;;;31.23;34.05;99277.44;5207191;28;20057;-71
2022/06/16 10:33:27;;;;;;;6.72;3.50;;;;;;;31.16;36.13;99289.75;5214584;28;20527;-71
2022/06/16 10:36:23;;;;;;;10.13;3.75;;;;;;;30.91;34.86;99285.88;5216294;28;20057;-73
2022/06/16 10:39:21;;;;;;;6.07;3.72;;;;;;;30.56;36.01;99290.13;5219648;28;20049;-69
2022/06/16 10:42:21;;;;;;;5.82;3.42;;;;;;;31.05;35.62;99302.59;5219298;28;20064;-70
2022/06/16 10:45:26;;;;;;;8.13;3.60;;;;;;;32.07;34.34;99302.66;5221508;28;20053;-70
2022/06/16 10:48:34;;;;;;;7.07;3.60;;;;;;;31.72;34.61;99303.50;5219689;28;20457;-71
2022/06/16 10:51:28;;;;;;;5.50;3.35;;;;;;;32.26;33.78;99311.94;5218912;28;20044;-70
2022/06/16 10:54:31;;;;;;;11.88;3.53;;;;;;;31.95;33.94;99318.59;5219159;28;20134;-71
2022/06/16 10:57:25;;;;;;;10.80;3.65;;;;;;;30.96;35.64;99312.44;5221071;28;20151;-70
2022/06/16 11:00:22;;;;;;;6.28;3.22;;;;;;;30.99;33.78;99326.41;5221145;28;20053;-69
2022/06/16 11:03:17;;;;;;;5.70;3.40;;;;;;;31.23;33.07;99321.28;5220946;28;20121;-70
2022/06/16 11:06:08;;;;;;;9.00;3.45;;;;;;;31.05;35.38;99324.53;5220754;28;20055;-72
2022/06/16 11:09:03;;;;;;;8.07;3.15;;;;;;;30.78;34.35;99328.28;5221403;28;20049;-71
2022/06/16 11:11:58;;;;;;;6.53;3.15;;;;;;;31.55;32.82;99331.19;5220662;28;20060;-69
2022/06/16 11:15:00;;;;;;;6.72;2.90;;;;;;;31.17;32.97;99321.53;5215504;28;20060;-71
2022/06/16 11:17:55;;;;;;;7.47;3.10;;;;;;;31.54;33.58;99337.78;5216176;28;20060;-72
2022/06/16 11:20:50;;;;;;;9.05;3.10;;;;;;;31.29;34.57;99330.31;5220930;28;20056;-71
2022/06/16 11:23:47;;;;;;;6.32;3.08;;;;;;;30.57;33.86;99335.56;5220879;28;20144;-73
2022/06/16 11:26:43;;;;;;;8.38;2.95;;;;;;;30.48;33.54;99342.63;5222084;28;20430;-71
2022/06/16 11:29:34;;;;;;;5.30;3.63;;;;;;;31.29;33.89;99319.34;5221865;28;20055;-72
2022/06/16 11:32:31;;;;;;;9.88;3.30;;;;;;;31.71;33.36;99351.22;5217403;28;20053;-72
2022/06/16 11:35:32;;;;;;;8.02;2.70;;;;;;;31.87;35.15;99354.78;5220754;28;20194;-72
2022/06/16 11:38:35;;;;;;;6.93;3.03;;;;;;;30.74;34.04;99351.78;5210505;28;20474;-72
2022/06/16 11:41:27;;;;;;;7.40;2.95;;;;;;;31.75;33.29;99353.13;5221741;28;20521;-73
2022/06/16 11:44:34;;;;;;;9.02;3.17;;;;;;;31.29;32.95;99353.06;5221505;28;20070;-72
2022/06/16 11:47:45;;;;;;;5.28;3.08;;;;;;;31.05;31.46;99358.19;5221466;28;20145;-70
2022/06/16 11:50:55;;;;;;;8.35;2.95;;;;;;;30.78;33.22;99352.91;5208571;28;20102;-69
2022/06/16 11:54:03;;;;;;;6.05;3.28;;;;;;;31.44;34.02;99348.72;5219902;28;20064;-70
2022/06/16 11:57:04;;;;;;;4.40;3.17;;;;;;;30.64;33.55;99341.59;5221702;28;20052;-69
2022/06/16 12:00:10;;;;;;;6.65;2.92;;;;;;;30.24;33.62;99347.69;5224448;28;20518;-71
2022/06/16 12:03:35;;;;;;;6.45;3.22;;;;;;;30.17;35.73;99347.06;5213408;28;20045;-71
2022/06/16 12:06:59;;;;;;;7.93;2.75;;;;;;;30.64;32.09;99329.84;5224802;28;20052;-71
2022/06/16 12:10:08;;;;;;;8.90;3.40;;;;;;;30.48;31.73;99325.38;5225055;28;20059;-70
2022/06/16 12:13:21;;;;;;;7.22;2.92;;;;;;;30.57;32.73;99332.00;5224318;28;20045;-72
2022/06/16 12:16:22;;;;;;;6.88;2.95;;;;;;;31.18;33.26;99324.00;5224155;28;20562;-71
2022/06/16 12:19:31;;;;;;;6.25;2.70;;;;;;;30.31;34.92;99337.34;5221475;28;20051;-71
2022/06/16 12:22:26;;;;;;;4.57;2.83;;;;;;;30.26;33.81;99329.09;5219355;28;20114;-70
2022/06/16 12:25:26;;;;;;;6.82;2.83;;;;;;;30.50;31.97;99329.50;5221588;28;20106;-71
2022/06/16 12:28:29;;;;;;;6.75;3.15;;;;;;;30.36;31.95;99320.94;5220084;28;20076;-70
2022/06/16 12:31:22;;;;;;;4.45;2.65;;;;;;;30.50;31.38;99313.09;5219925;28;20052;-71
2022/06/16 12:34:33;;;;;;;6.15;2.78;;;;;;;30.07;32.19;99325.13;5222132;28;20068;-71
2022/06/16 12:37:28;;;;;;;6.90;2.92;;;;;;;29.16;32.07;99320.50;5220658;28;20048;-69
2022/06/16 12:40:25;;;;;;;6.82;2.83;;;;;;;29.66;32.20;99313.88;5220143;28;20045;-68
2022/06/16 12:43:27;;;;;;;7.05;2.63;;;;;;;29.89;31.70;99318.97;5223805;28;20051;-70
2022/06/16 12:46:30;;;;;;;7.85;2.88;;;;;;;29.21;32.94;99317.84;5222608;28;20067;-71
2022/06/16 12:49:27;;;;;;;9.50;3.22;;;;;;;29.37;32.85;99322.38;5222694;28;20044;-69
2022/06/16 12:52:30;;;;;;;4.72;3.03;;;;;;;29.81;33.29;99326.88;5209271;28;20060;-71
2022/06/16 12:55:29;;;;;;;8.10;3.08;;;;;;;29.95;33.09;99320.66;5223061;28;20692;-74
2022/06/16 12:58:30;;;;;;;5.75;3.60;;;;;;;28.99;32.19;99310.47;5224458;28;20056;-69
2022/06/16 13:01:20;;;;;;;9.98;3.35;;;;;;;29.07;31.56;99313.84;5223351;28;20131;-69
2022/06/16 13:04:16;;;;;;;6.80;2.85;;;;;;;29.53;33.44;99315.09;5224524;28;20058;-68
2022/06/16 13:07:16;;;;;;;5.25;3.55;;;;;;;29.16;33.27;99315.03;5223445;28;20052;-69
2022/06/16 13:10:09;;;;;;;11.32;3.65;;;;;;;29.56;30.97;99321.97;5221555;28;20101;-69
2022/06/16 13:12:59;;;;;;;5.47;2.80;;;;;;;29.71;31.30;99322.97;5220758;28;20126;-69
2022/06/16 13:15:54;;;;;;;9.32;3.17;;;;;;;29.94;31.73;99335.44;5221786;28;20064;-69
2022/06/16 13:18:55;;;;;;;5.32;3.03;;;;;;;29.35;30.47;99340.91;5218183;28;20048;-68
2022/06/16 13:21:57;;;;;;;7.60;3.28;;;;;;;29.71;31.18;99319.41;5223022;28;20691;-68
2022/06/16 13:24:51;;;;;;;7.45;2.70;;;;;;;29.97;29.90;99342.28;5218668;28;20127;-68
2022/06/16 13:27:53;;;;;;;3.08;2.45;;;;;;;29.86;28.89;99340.53;5214518;28;20114;-69
2022/06/16 13:31:09;;;;;;;5.40;2.30;;;;;;;29.89;28.50;99337.28;5225154;28;20676;-69
2022/06/16 13:33:59;;;;;;;6.70;1.98;;;;;;;30.65;27.93;99339.69;5222262;28;20194;-68
2022/06/16 13:36:53;;;;;;;5.07;2.50;;;;;;;30.28;27.26;99346.06;5223586;28;20051;-69
2022/06/16 13:40:22;;;;;;;5.20;2.53;;;;;;;30.00;27.45;99357.31;5222827;28;20048;-69
2022/06/16 13:43:19;;;;;;;5.75;2.85;;;;;;;29.53;30.12;99358.00;5221451;28;20060;-68
2022/06/16 13:46:10;;;;;;;6.60;3.03;;;;;;;30.12;29.28;99355.22;5223267;28;20918;-70
2022/06/16 13:49:05;;;;;;;8.73;3.13;;;;;;;30.25;28.95;99351.25;5223812;28;20057;-68
2022/06/16 13:52:07;;;;;;;3.80;2.75;;;;;;;30.20;28.37;99357.53;5223029;28;20084;-69
2022/06/16 13:55:21;;;;;;;6.18;3.05;;;;;;;29.51;29.40;99355.53;5222054;28;20044;-70
2022/06/16 13:58:19;;;;;;;5.20;2.80;;;;;;;30.17;29.02;99341.59;5213235;28;20056;-69
2022/06/16 14:01:17;;;;;;;10.88;2.88;;;;;;;30.30;29.82;99354.84;5206348;28;20052;-71
2022/06/16 14:04:15;;;;;;;9.45;3.15;;;;;;;29.78;29.45;99341.88;5222882;28;20057;-69
2022/06/16 14:07:08;;;;;;;8.35;3.00;;;;;;;29.30;29.18;99335.38;5215348;28;20097;-69
2022/06/16 14:10:20;;;;;;;6.85;2.90;;;;;;;29.77;29.34;99351.16;5211293;28;20075;-71
2022/06/16 14:13:13;;;;;;;7.88;2.25;;;;;;;29.48;28.81;99347.88;5222618;28;20471;-71